sensor_id;sensor_type;location;lat;lon;timestamp;temperature;humidity
13464;DHT22;6804;48.774;9.174;2023-10-08T00:02:04;16.80;93.40
13464;DHT22;6804;48.774;9.174;2023-10-08T00:04:37;16.80;93.00
13464;DHT22;6804;48.774;9.174;2023-10-08T00:07:08;16.80;93.00
13464;DHT22;6804;48.774;9.174;2023-10-08T00:09:40;16.80;93.40
13464;DHT22;6804;48.774;9.174;2023-10-08T00:12:10;16.90;93.10
13464;DHT22;6804;48.774;9.174;2023-10-08T00:14:39;16.80;93.00
13464;DHT22;6804;48.774;9.174;2023-10-08T00:17:12;16.70;93.90
13464;DHT22;6804;48.774;9.174;2023-10-08T00:19:47;16.60;94.20
13464;DHT22;6804;48.774;9.174;2023-10-08T00:22:19;16.50;94.40
13464;DHT22;6804;48.774;9.174;2023-10-08T00:24:46;16.50;94.40
13464;DHT22;6804;48.774;9.174;2023-10-08T00:27:20;16.60;94.40
13464;DHT22;6804;48.774;9.174;2023-10-08T00:29:50;16.70;94.30
13464;DHT22;6804;48.774;9.174;2023-10-08T00:32:19;16.70;94.20
13464;DHT22;6804;48.774;9.174;2023-10-08T00:34:50;16.70;94.20
13464;DHT22;6804;48.774;9.174;2023-10-08T00:37:19;16.70;94.20
13464;DHT22;6804;48.774;9.174;2023-10-08T00:39:52;16.70;94.40
13464;DHT22;6804;48.774;9.174;2023-10-08T00:42:41;16.70;94.60
13464;DHT22;6804;48.774;9.174;2023-10-08T00:45:12;16.70;94.90
13464;DHT22;6804;48.774;9.174;2023-10-08T00:47:40;16.60;94.90
13464;DHT22;6804;48.774;9.174;2023-10-08T00:50:11;16.60;95.10
13464;DHT22;6804;48.774;9.174;2023-10-08T00:52:48;16.60;95.10
13464;DHT22;6804;48.774;9.174;2023-10-08T00:55:27;16.60;95.10
13464;DHT22;6804;48.774;9.174;2023-10-08T00:57:58;16.60;94.90
13464;DHT22;6804;48.774;9.174;2023-10-08T01:00:35;16.60;94.70
13464;DHT22;6804;48.774;9.174;2023-10-08T01:03:08;16.60;94.70
13464;DHT22;6804;48.774;9.174;2023-10-08T01:05:42;16.70;94.80
13464;DHT22;6804;48.774;9.174;2023-10-08T01:08:17;16.70;94.80
13464;DHT22;6804;48.774;9.174;2023-10-08T01:10:51;16.70;94.80
13464;DHT22;6804;48.774;9.174;2023-10-08T01:13:29;16.70;94.60
13464;DHT22;6804;48.774;9.174;2023-10-08T01:16:02;16.70;94.40
13464;DHT22;6804;48.774;9.174;2023-10-08T01:18:30;16.80;94.20
13464;DHT22;6804;48.774;9.174;2023-10-08T01:21:00;16.70;94.60
13464;DHT22;6804;48.774;9.174;2023-10-08T01:23:37;16.70;94.70
13464;DHT22;6804;48.774;9.174;2023-10-08T01:26:05;16.70;94.30
13464;DHT22;6804;48.774;9.174;2023-10-08T01:28:48;16.70;94.50
13464;DHT22;6804;48.774;9.174;2023-10-08T01:31:18;16.70;94.30
13464;DHT22;6804;48.774;9.174;2023-10-08T01:33:46;16.60;94.90
13464;DHT22;6804;48.774;9.174;2023-10-08T01:36:18;16.60;95.00
13464;DHT22;6804;48.774;9.174;2023-10-08T01:38:50;16.50;95.20
13464;DHT22;6804;48.774;9.174;2023-10-08T01:41:20;16.50;95.10
13464;DHT22;6804;48.774;9.174;2023-10-08T01:43:58;16.50;95.40
13464;DHT22;6804;48.774;9.174;2023-10-08T01:46:26;16.40;95.40
13464;DHT22;6804;48.774;9.174;2023-10-08T01:48:54;16.40;95.40
13464;DHT22;6804;48.774;9.174;2023-10-08T01:51:30;16.40;95.40
13464;DHT22;6804;48.774;9.174;2023-10-08T01:54:13;16.40;95.50
13464;DHT22;6804;48.774;9.174;2023-10-08T01:56:44;16.40;95.70
13464;DHT22;6804;48.774;9.174;2023-10-08T01:59:12;16.30;95.80
13464;DHT22;6804;48.774;9.174;2023-10-08T02:01:51;16.40;95.90
13464;DHT22;6804;48.774;9.174;2023-10-08T02:04:21;16.30;95.70
13464;DHT22;6804;48.774;9.174;2023-10-08T02:06:49;16.20;96.00
13464;DHT22;6804;48.774;9.174;2023-10-08T02:09:18;16.30;96.00
13464;DHT22;6804;48.774;9.174;2023-10-08T02:11:52;16.30;96.00
13464;DHT22;6804;48.774;9.174;2023-10-08T02:14:21;16.30;95.90
13464;DHT22;6804;48.774;9.174;2023-10-08T02:16:50;16.30;95.90
13464;DHT22;6804;48.774;9.174;2023-10-08T02:19:20;16.30;95.90
13464;DHT22;6804;48.774;9.174;2023-10-08T02:21:53;16.10;96.00
13464;DHT22;6804;48.774;9.174;2023-10-08T02:24:22;16.00;96.10
13464;DHT22;6804;48.774;9.174;2023-10-08T02:26:51;15.90;96.30
13464;DHT22;6804;48.774;9.174;2023-10-08T02:29:23;15.90;96.30
13464;DHT22;6804;48.774;9.174;2023-10-08T02:31:51;16.00;96.40
13464;DHT22;6804;48.774;9.174;2023-10-08T02:34:20;16.00;96.40
13464;DHT22;6804;48.774;9.174;2023-10-08T02:36:47;16.00;96.30
13464;DHT22;6804;48.774;9.174;2023-10-08T02:39:17;16.00;96.70
13464;DHT22;6804;48.774;9.174;2023-10-08T02:41:50;16.00;96.40
13464;DHT22;6804;48.774;9.174;2023-10-08T02:44:19;16.00;96.40
13464;DHT22;6804;48.774;9.174;2023-10-08T02:46:47;16.00;96.40
13464;DHT22;6804;48.774;9.174;2023-10-08T02:49:21;16.00;96.60
13464;DHT22;6804;48.774;9.174;2023-10-08T02:51:49;15.90;96.70
13464;DHT22;6804;48.774;9.174;2023-10-08T02:54:18;15.80;96.70
13464;DHT22;6804;48.774;9.174;2023-10-08T02:56:52;15.80;97.00
13464;DHT22;6804;48.774;9.174;2023-10-08T02:59:25;15.80;97.00
13464;DHT22;6804;48.774;9.174;2023-10-08T03:02:04;15.90;97.20
13464;DHT22;6804;48.774;9.174;2023-10-08T03:04:41;15.90;97.10
13464;DHT22;6804;48.774;9.174;2023-10-08T03:07:11;15.80;97.10
13464;DHT22;6804;48.774;9.174;2023-10-08T03:09:47;15.80;97.10
13464;DHT22;6804;48.774;9.174;2023-10-08T03:12:17;15.70;97.10
13464;DHT22;6804;48.774;9.174;2023-10-08T03:14:52;15.70;97.60
13464;DHT22;6804;48.774;9.174;2023-10-08T03:17:41;15.60;97.60
13464;DHT22;6804;48.774;9.174;2023-10-08T03:20:18;15.60;97.60
13464;DHT22;6804;48.774;9.174;2023-10-08T03:23:04;15.60;97.70
13464;DHT22;6804;48.774;9.174;2023-10-08T03:26:05;15.50;97.80
13464;DHT22;6804;48.774;9.174;2023-10-08T03:29:00;15.50;97.80
13464;DHT22;6804;48.774;9.174;2023-10-08T03:31:32;15.50;97.80
13464;DHT22;6804;48.774;9.174;2023-10-08T03:34:17;15.50;97.70
13464;DHT22;6804;48.774;9.174;2023-10-08T03:36:47;15.40;97.70
13464;DHT22;6804;48.774;9.174;2023-10-08T03:39:16;15.40;97.70
13464;DHT22;6804;48.774;9.174;2023-10-08T03:41:46;15.40;97.70
13464;DHT22;6804;48.774;9.174;2023-10-08T03:44:27;15.20;98.40
13464;DHT22;6804;48.774;9.174;2023-10-08T03:46:57;15.20;98.50
13464;DHT22;6804;48.774;9.174;2023-10-08T03:49:25;15.10;98.50
13464;DHT22;6804;48.774;9.174;2023-10-08T03:51:55;15.10;98.40
13464;DHT22;6804;48.774;9.174;2023-10-08T03:54:23;15.10;98.40
13464;DHT22;6804;48.774;9.174;2023-10-08T03:57:03;15.10;98.50
13464;DHT22;6804;48.774;9.174;2023-10-08T03:59:35;15.20;98.50
13464;DHT22;6804;48.774;9.174;2023-10-08T04:02:08;15.10;98.40
13464;DHT22;6804;48.774;9.174;2023-10-08T04:04:40;15.20;98.50
13464;DHT22;6804;48.774;9.174;2023-10-08T04:07:21;15.20;98.50
13464;DHT22;6804;48.774;9.174;2023-10-08T04:09:54;15.10;98.60
13464;DHT22;6804;48.774;9.174;2023-10-08T04:12:42;15.20;98.60
13464;DHT22;6804;48.774;9.174;2023-10-08T04:15:16;15.10;98.60
13464;DHT22;6804;48.774;9.174;2023-10-08T04:17:45;15.00;98.70
13464;DHT22;6804;48.774;9.174;2023-10-08T04:20:17;15.00;98.80
13464;DHT22;6804;48.774;9.174;2023-10-08T04:23:00;15.00;98.80
13464;DHT22;6804;48.774;9.174;2023-10-08T04:25:28;15.00;98.90
13464;DHT22;6804;48.774;9.174;2023-10-08T04:28:00;14.90;99.00
13464;DHT22;6804;48.774;9.174;2023-10-08T04:30:34;14.90;98.90
13464;DHT22;6804;48.774;9.174;2023-10-08T04:33:06;14.90;99.20
13464;DHT22;6804;48.774;9.174;2023-10-08T04:35:36;14.90;99.20
13464;DHT22;6804;48.774;9.174;2023-10-08T04:38:14;14.90;99.10
13464;DHT22;6804;48.774;9.174;2023-10-08T04:40:44;14.90;99.30
13464;DHT22;6804;48.774;9.174;2023-10-08T04:43:15;14.80;99.60
13464;DHT22;6804;48.774;9.174;2023-10-08T04:45:51;14.70;99.90
13464;DHT22;6804;48.774;9.174;2023-10-08T04:48:26;14.70;99.80
13464;DHT22;6804;48.774;9.174;2023-10-08T04:50:57;14.70;99.50
13464;DHT22;6804;48.774;9.174;2023-10-08T04:53:39;14.70;99.30
13464;DHT22;6804;48.774;9.174;2023-10-08T04:56:35;14.70;99.50
13464;DHT22;6804;48.774;9.174;2023-10-08T04:59:07;14.70;99.30
13464;DHT22;6804;48.774;9.174;2023-10-08T05:01:38;14.60;99.20
13464;DHT22;6804;48.774;9.174;2023-10-08T05:04:16;14.70;99.30
13464;DHT22;6804;48.774;9.174;2023-10-08T05:06:58;14.70;99.10
13464;DHT22;6804;48.774;9.174;2023-10-08T05:09:48;14.80;99.10
13464;DHT22;6804;48.774;9.174;2023-10-08T05:12:37;14.80;99.10
13464;DHT22;6804;48.774;9.174;2023-10-08T05:15:09;14.80;99.20
13464;DHT22;6804;48.774;9.174;2023-10-08T05:17:57;14.80;99.30
13464;DHT22;6804;48.774;9.174;2023-10-08T05:20:39;14.80;99.20
13464;DHT22;6804;48.774;9.174;2023-10-08T05:23:27;14.80;99.30
13464;DHT22;6804;48.774;9.174;2023-10-08T05:26:17;14.80;99.20
13464;DHT22;6804;48.774;9.174;2023-10-08T05:29:15;14.80;99.30
13464;DHT22;6804;48.774;9.174;2023-10-08T05:31:56;14.90;99.50
13464;DHT22;6804;48.774;9.174;2023-10-08T05:34:39;14.80;99.50
13464;DHT22;6804;48.774;9.174;2023-10-08T05:37:25;14.80;99.60
13464;DHT22;6804;48.774;9.174;2023-10-08T05:40:04;14.80;99.60
13464;DHT22;6804;48.774;9.174;2023-10-08T05:42:47;14.80;99.70
13464;DHT22;6804;48.774;9.174;2023-10-08T05:45:16;14.80;99.80
13464;DHT22;6804;48.774;9.174;2023-10-08T05:47:56;14.80;99.80
13464;DHT22;6804;48.774;9.174;2023-10-08T05:50:40;14.80;99.90
13464;DHT22;6804;48.774;9.174;2023-10-08T05:53:27;14.80;99.90
13464;DHT22;6804;48.774;9.174;2023-10-08T05:56:09;14.70;99.90
13464;DHT22;6804;48.774;9.174;2023-10-08T05:58:56;14.70;99.90
13464;DHT22;6804;48.774;9.174;2023-10-08T06:01:44;14.70;99.90
13464;DHT22;6804;48.774;9.174;2023-10-08T06:04:14;14.80;99.90
13464;DHT22;6804;48.774;9.174;2023-10-08T06:07:10;14.80;99.90
13464;DHT22;6804;48.774;9.174;2023-10-08T06:09:49;14.90;99.90
13464;DHT22;6804;48.774;9.174;2023-10-08T06:12:28;14.90;99.90
13464;DHT22;6804;48.774;9.174;2023-10-08T06:14:58;15.00;99.70
13464;DHT22;6804;48.774;9.174;2023-10-08T06:17:36;15.10;99.40
13464;DHT22;6804;48.774;9.174;2023-10-08T06:20:22;15.00;99.50
13464;DHT22;6804;48.774;9.174;2023-10-08T06:22:57;15.10;99.20
13464;DHT22;6804;48.774;9.174;2023-10-08T06:25:29;15.10;99.30
13464;DHT22;6804;48.774;9.174;2023-10-08T06:28:01;15.10;99.40
13464;DHT22;6804;48.774;9.174;2023-10-08T06:30:28;15.20;99.70
13464;DHT22;6804;48.774;9.174;2023-10-08T06:33:00;15.10;99.10
13464;DHT22;6804;48.774;9.174;2023-10-08T06:35:29;15.10;99.20
13464;DHT22;6804;48.774;9.174;2023-10-08T06:38:00;14.90;99.60
13464;DHT22;6804;48.774;9.174;2023-10-08T06:40:35;14.80;99.60
13464;DHT22;6804;48.774;9.174;2023-10-08T06:43:17;14.70;99.80
13464;DHT22;6804;48.774;9.174;2023-10-08T06:45:48;14.70;99.90
13464;DHT22;6804;48.774;9.174;2023-10-08T06:48:21;14.70;99.80
13464;DHT22;6804;48.774;9.174;2023-10-08T06:50:50;14.70;99.90
13464;DHT22;6804;48.774;9.174;2023-10-08T06:53:23;14.70;99.90
13464;DHT22;6804;48.774;9.174;2023-10-08T06:55:51;14.70;99.90
13464;DHT22;6804;48.774;9.174;2023-10-08T06:58:28;14.80;99.90
13464;DHT22;6804;48.774;9.174;2023-10-08T07:00:58;14.90;99.90
13464;DHT22;6804;48.774;9.174;2023-10-08T07:03:31;15.00;99.90
13464;DHT22;6804;48.774;9.174;2023-10-08T07:06:00;15.20;99.90
13464;DHT22;6804;48.774;9.174;2023-10-08T07:08:32;15.30;99.90
13464;DHT22;6804;48.774;9.174;2023-10-08T07:11:02;15.40;99.40
13464;DHT22;6804;48.774;9.174;2023-10-08T07:13:38;15.50;99.10
13464;DHT22;6804;48.774;9.174;2023-10-08T07:16:08;15.50;99.10
13464;DHT22;6804;48.774;9.174;2023-10-08T07:18:40;15.50;98.70
13464;DHT22;6804;48.774;9.174;2023-10-08T07:21:14;15.70;98.50
13464;DHT22;6804;48.774;9.174;2023-10-08T07:23:51;15.80;98.30
13464;DHT22;6804;48.774;9.174;2023-10-08T07:26:30;16.10;98.40
13464;DHT22;6804;48.774;9.174;2023-10-08T07:29:06;16.30;98.10
13464;DHT22;6804;48.774;9.174;2023-10-08T07:31:37;16.60;96.90
13464;DHT22;6804;48.774;9.174;2023-10-08T07:34:08;16.80;96.80
13464;DHT22;6804;48.774;9.174;2023-10-08T07:36:54;16.90;96.80
13464;DHT22;6804;48.774;9.174;2023-10-08T07:39:24;17.10;96.60
13464;DHT22;6804;48.774;9.174;2023-10-08T07:42:03;17.20;96.50
13464;DHT22;6804;48.774;9.174;2023-10-08T07:44:35;17.20;96.30
13464;DHT22;6804;48.774;9.174;2023-10-08T07:47:05;17.30;96.40
13464;DHT22;6804;48.774;9.174;2023-10-08T07:49:37;17.40;96.60
13464;DHT22;6804;48.774;9.174;2023-10-08T07:52:05;17.40;96.60
13464;DHT22;6804;48.774;9.174;2023-10-08T07:54:43;17.50;96.60
13464;DHT22;6804;48.774;9.174;2023-10-08T07:57:23;17.60;96.60
13464;DHT22;6804;48.774;9.174;2023-10-08T07:59:58;17.60;96.60
13464;DHT22;6804;48.774;9.174;2023-10-08T08:02:44;17.70;96.70
13464;DHT22;6804;48.774;9.174;2023-10-08T08:05:11;17.80;96.80
13464;DHT22;6804;48.774;9.174;2023-10-08T08:07:44;17.80;96.80
13464;DHT22;6804;48.774;9.174;2023-10-08T08:10:19;17.90;97.00
13464;DHT22;6804;48.774;9.174;2023-10-08T08:12:49;17.90;97.10
13464;DHT22;6804;48.774;9.174;2023-10-08T08:15:22;17.90;97.20
13464;DHT22;6804;48.774;9.174;2023-10-08T08:17:53;18.00;97.30
13464;DHT22;6804;48.774;9.174;2023-10-08T08:20:21;18.00;97.20
13464;DHT22;6804;48.774;9.174;2023-10-08T08:23:01;18.10;97.10
13464;DHT22;6804;48.774;9.174;2023-10-08T08:25:40;18.10;96.80
13464;DHT22;6804;48.774;9.174;2023-10-08T08:28:23;18.10;96.60
13464;DHT22;6804;48.774;9.174;2023-10-08T08:30:51;18.20;97.00
13464;DHT22;6804;48.774;9.174;2023-10-08T08:33:22;18.20;97.40
13464;DHT22;6804;48.774;9.174;2023-10-08T08:36:01;18.20;97.50
13464;DHT22;6804;48.774;9.174;2023-10-08T08:38:32;18.40;97.50
13464;DHT22;6804;48.774;9.174;2023-10-08T08:41:05;18.40;97.60
13464;DHT22;6804;48.774;9.174;2023-10-08T08:43:35;18.40;97.80
13464;DHT22;6804;48.774;9.174;2023-10-08T08:46:13;18.60;97.60
13464;DHT22;6804;48.774;9.174;2023-10-08T08:48:44;18.80;97.50
13464;DHT22;6804;48.774;9.174;2023-10-08T08:51:14;19.10;97.40
13464;DHT22;6804;48.774;9.174;2023-10-08T08:53:43;19.40;96.90
13464;DHT22;6804;48.774;9.174;2023-10-08T08:56:15;19.70;95.60
13464;DHT22;6804;48.774;9.174;2023-10-08T08:58:54;20.00;95.50
13464;DHT22;6804;48.774;9.174;2023-10-08T09:01:23;20.20;94.50
13464;DHT22;6804;48.774;9.174;2023-10-08T09:03:51;20.30;94.10
13464;DHT22;6804;48.774;9.174;2023-10-08T09:06:35;20.10;94.10
13464;DHT22;6804;48.774;9.174;2023-10-08T09:09:05;20.00;94.50
13464;DHT22;6804;48.774;9.174;2023-10-08T09:11:53;19.80;94.70
13464;DHT22;6804;48.774;9.174;2023-10-08T09:14:25;19.80;94.90
13464;DHT22;6804;48.774;9.174;2023-10-08T09:16:54;19.90;94.90
13464;DHT22;6804;48.774;9.174;2023-10-08T09:19:26;20.30;95.00
13464;DHT22;6804;48.774;9.174;2023-10-08T09:22:02;20.60;94.40
13464;DHT22;6804;48.774;9.174;2023-10-08T09:24:32;21.00;94.20
13464;DHT22;6804;48.774;9.174;2023-10-08T09:27:08;21.40;93.90
13464;DHT22;6804;48.774;9.174;2023-10-08T09:29:40;21.80;93.30
13464;DHT22;6804;48.774;9.174;2023-10-08T09:32:13;22.00;92.50
13464;DHT22;6804;48.774;9.174;2023-10-08T09:34:49;22.10;92.40
13464;DHT22;6804;48.774;9.174;2023-10-08T09:37:20;21.90;91.80
13464;DHT22;6804;48.774;9.174;2023-10-08T09:39:52;21.90;92.30
13464;DHT22;6804;48.774;9.174;2023-10-08T09:42:26;21.80;92.40
13464;DHT22;6804;48.774;9.174;2023-10-08T09:44:56;21.70;92.30
13464;DHT22;6804;48.774;9.174;2023-10-08T09:47:26;21.70;92.50
13464;DHT22;6804;48.774;9.174;2023-10-08T09:50:01;21.80;92.60
13464;DHT22;6804;48.774;9.174;2023-10-08T09:52:57;21.60;91.80
13464;DHT22;6804;48.774;9.174;2023-10-08T09:55:32;21.30;92.20
13464;DHT22;6804;48.774;9.174;2023-10-08T09:58:03;21.10;92.40
13464;DHT22;6804;48.774;9.174;2023-10-08T10:00:33;21.10;92.70
13464;DHT22;6804;48.774;9.174;2023-10-08T10:03:05;21.10;92.70
13464;DHT22;6804;48.774;9.174;2023-10-08T10:05:36;21.20;92.80
13464;DHT22;6804;48.774;9.174;2023-10-08T10:08:05;21.30;93.00
13464;DHT22;6804;48.774;9.174;2023-10-08T10:10:37;21.20;92.70
13464;DHT22;6804;48.774;9.174;2023-10-08T10:13:10;21.10;93.20
13464;DHT22;6804;48.774;9.174;2023-10-08T10:16:04;21.20;93.20
13464;DHT22;6804;48.774;9.174;2023-10-08T10:18:37;21.20;93.20
13464;DHT22;6804;48.774;9.174;2023-10-08T10:21:24;21.30;93.20
13464;DHT22;6804;48.774;9.174;2023-10-08T10:23:55;21.40;93.50
13464;DHT22;6804;48.774;9.174;2023-10-08T10:26:28;21.50;93.30
13464;DHT22;6804;48.774;9.174;2023-10-08T10:29:21;21.70;93.40
13464;DHT22;6804;48.774;9.174;2023-10-08T10:31:53;21.80;93.30
13464;DHT22;6804;48.774;9.174;2023-10-08T10:34:27;21.70;92.70
13464;DHT22;6804;48.774;9.174;2023-10-08T10:36:55;21.60;92.70
13464;DHT22;6804;48.774;9.174;2023-10-08T10:39:25;21.70;93.20
13464;DHT22;6804;48.774;9.174;2023-10-08T10:41:56;21.80;93.40
13464;DHT22;6804;48.774;9.174;2023-10-08T10:44:34;21.90;93.40
13464;DHT22;6804;48.774;9.174;2023-10-08T10:47:07;22.00;93.60
13464;DHT22;6804;48.774;9.174;2023-10-08T10:49:55;22.20;93.40
13464;DHT22;6804;48.774;9.174;2023-10-08T10:52:54;22.40;93.40
13464;DHT22;6804;48.774;9.174;2023-10-08T10:55:22;22.60;93.10
13464;DHT22;6804;48.774;9.174;2023-10-08T10:57:58;22.70;92.90
13464;DHT22;6804;48.774;9.174;2023-10-08T11:00:41;22.70;92.30
13464;DHT22;6804;48.774;9.174;2023-10-08T11:03:33;22.30;92.50
13464;DHT22;6804;48.774;9.174;2023-10-08T11:06:02;22.00;93.00
13464;DHT22;6804;48.774;9.174;2023-10-08T11:08:45;21.80;93.00
13464;DHT22;6804;48.774;9.174;2023-10-08T11:11:17;21.70;93.20
13464;DHT22;6804;48.774;9.174;2023-10-08T11:13:47;21.50;93.30
13464;DHT22;6804;48.774;9.174;2023-10-08T11:16:26;21.50;93.60
13464;DHT22;6804;48.774;9.174;2023-10-08T11:18:57;21.60;93.50
13464;DHT22;6804;48.774;9.174;2023-10-08T11:21:48;21.70;93.60
13464;DHT22;6804;48.774;9.174;2023-10-08T11:24:29;21.80;93.60
13464;DHT22;6804;48.774;9.174;2023-10-08T11:26:59;21.90;93.60
13464;DHT22;6804;48.774;9.174;2023-10-08T11:29:42;22.10;93.90
13464;DHT22;6804;48.774;9.174;2023-10-08T11:32:15;22.30;93.70
13464;DHT22;6804;48.774;9.174;2023-10-08T11:34:47;22.50;93.40
13464;DHT22;6804;48.774;9.174;2023-10-08T11:37:26;22.70;93.40
13464;DHT22;6804;48.774;9.174;2023-10-08T11:39:57;22.90;93.40
13464;DHT22;6804;48.774;9.174;2023-10-08T11:42:26;23.10;93.40
13464;DHT22;6804;48.774;9.174;2023-10-08T11:45:11;23.40;93.30
13464;DHT22;6804;48.774;9.174;2023-10-08T11:47:47;23.60;92.30
13464;DHT22;6804;48.774;9.174;2023-10-08T11:50:16;23.70;92.00
13464;DHT22;6804;48.774;9.174;2023-10-08T11:52:46;23.80;92.10
13464;DHT22;6804;48.774;9.174;2023-10-08T11:55:18;23.90;92.40
13464;DHT22;6804;48.774;9.174;2023-10-08T11:57:46;23.90;91.50
13464;DHT22;6804;48.774;9.174;2023-10-08T12:00:16;24.00;91.60
13464;DHT22;6804;48.774;9.174;2023-10-08T12:02:58;24.20;91.70
13464;DHT22;6804;48.774;9.174;2023-10-08T12:05:29;24.20;91.10
13464;DHT22;6804;48.774;9.174;2023-10-08T12:07:58;24.20;91.30
13464;DHT22;6804;48.774;9.174;2023-10-08T12:10:30;24.50;91.20
13464;DHT22;6804;48.774;9.174;2023-10-08T12:13:02;24.70;91.20
13464;DHT22;6804;48.774;9.174;2023-10-08T12:15:34;24.70;90.20
13464;DHT22;6804;48.774;9.174;2023-10-08T12:18:08;24.90;90.40
13464;DHT22;6804;48.774;9.174;2023-10-08T12:20:39;25.10;90.30
13464;DHT22;6804;48.774;9.174;2023-10-08T12:23:11;25.10;88.80
13464;DHT22;6804;48.774;9.174;2023-10-08T12:25:51;24.70;89.60
13464;DHT22;6804;48.774;9.174;2023-10-08T12:28:20;24.40;90.00
13464;DHT22;6804;48.774;9.174;2023-10-08T12:30:49;24.50;90.40
13464;DHT22;6804;48.774;9.174;2023-10-08T12:33:18;24.40;90.00
13464;DHT22;6804;48.774;9.174;2023-10-08T12:35:50;24.30;90.00
13464;DHT22;6804;48.774;9.174;2023-10-08T12:38:23;24.40;90.40
13464;DHT22;6804;48.774;9.174;2023-10-08T12:40:55;24.70;90.50
13464;DHT22;6804;48.774;9.174;2023-10-08T12:43:28;24.80;89.70
13464;DHT22;6804;48.774;9.174;2023-10-08T12:46:00;24.80;89.20
13464;DHT22;6804;48.774;9.174;2023-10-08T12:48:28;24.70;89.30
13464;DHT22;6804;48.774;9.174;2023-10-08T12:50:56;24.60;89.70
13464;DHT22;6804;48.774;9.174;2023-10-08T12:53:25;24.70;89.90
13464;DHT22;6804;48.774;9.174;2023-10-08T12:56:06;24.70;89.60
13464;DHT22;6804;48.774;9.174;2023-10-08T12:58:43;25.10;89.60
13464;DHT22;6804;48.774;9.174;2023-10-08T13:01:15;25.40;88.40
13464;DHT22;6804;48.774;9.174;2023-10-08T13:03:45;25.60;85.80
13464;DHT22;6804;48.774;9.174;2023-10-08T13:06:18;25.70;86.20
13464;DHT22;6804;48.774;9.174;2023-10-08T13:08:55;25.90;83.10
13464;DHT22;6804;48.774;9.174;2023-10-08T13:11:28;26.20;83.30
13464;DHT22;6804;48.774;9.174;2023-10-08T13:14:00;26.30;80.90
13464;DHT22;6804;48.774;9.174;2023-10-08T13:16:29;26.40;80.70
13464;DHT22;6804;48.774;9.174;2023-10-08T13:19:01;26.40;78.70
13464;DHT22;6804;48.774;9.174;2023-10-08T13:21:29;26.60;79.10
13464;DHT22;6804;48.774;9.174;2023-10-08T13:24:00;26.70;78.20
13464;DHT22;6804;48.774;9.174;2023-10-08T13:26:32;26.80;76.10
13464;DHT22;6804;48.774;9.174;2023-10-08T13:29:02;26.70;76.20
13464;DHT22;6804;48.774;9.174;2023-10-08T13:31:30;26.80;78.50
13464;DHT22;6804;48.774;9.174;2023-10-08T13:34:03;26.90;76.80
13464;DHT22;6804;48.774;9.174;2023-10-08T13:36:35;26.90;76.80
13464;DHT22;6804;48.774;9.174;2023-10-08T13:39:24;26.90;77.00
13464;DHT22;6804;48.774;9.174;2023-10-08T13:42:02;27.00;77.50
13464;DHT22;6804;48.774;9.174;2023-10-08T13:44:31;26.90;77.00
13464;DHT22;6804;48.774;9.174;2023-10-08T13:47:01;27.00;77.40
13464;DHT22;6804;48.774;9.174;2023-10-08T13:49:31;27.10;77.80
13464;DHT22;6804;48.774;9.174;2023-10-08T13:52:00;27.00;77.60
13464;DHT22;6804;48.774;9.174;2023-10-08T13:54:30;27.10;76.70
13464;DHT22;6804;48.774;9.174;2023-10-08T13:57:03;27.10;77.00
13464;DHT22;6804;48.774;9.174;2023-10-08T13:59:39;27.10;76.50
13464;DHT22;6804;48.774;9.174;2023-10-08T14:02:09;27.00;75.60
13464;DHT22;6804;48.774;9.174;2023-10-08T14:04:46;27.00;75.40
13464;DHT22;6804;48.774;9.174;2023-10-08T14:07:21;26.90;75.50
13464;DHT22;6804;48.774;9.174;2023-10-08T14:09:53;26.90;75.30
13464;DHT22;6804;48.774;9.174;2023-10-08T14:12:23;26.70;75.60
13464;DHT22;6804;48.774;9.174;2023-10-08T14:14:55;26.60;76.20
13464;DHT22;6804;48.774;9.174;2023-10-08T14:17:32;26.60;76.50
13464;DHT22;6804;48.774;9.174;2023-10-08T14:20:12;26.50;76.90
13464;DHT22;6804;48.774;9.174;2023-10-08T14:22:42;26.50;77.30
13464;DHT22;6804;48.774;9.174;2023-10-08T14:25:15;26.40;77.10
13464;DHT22;6804;48.774;9.174;2023-10-08T14:27:46;26.30;78.20
13464;DHT22;6804;48.774;9.174;2023-10-08T14:30:21;26.30;77.70
13464;DHT22;6804;48.774;9.174;2023-10-08T14:32:51;26.30;77.90
13464;DHT22;6804;48.774;9.174;2023-10-08T14:35:23;26.30;77.60
13464;DHT22;6804;48.774;9.174;2023-10-08T14:38:10;26.30;77.50
13464;DHT22;6804;48.774;9.174;2023-10-08T14:40:55;26.20;76.70
13464;DHT22;6804;48.774;9.174;2023-10-08T14:43:42;26.10;76.40
13464;DHT22;6804;48.774;9.174;2023-10-08T14:46:12;26.00;76.60
13464;DHT22;6804;48.774;9.174;2023-10-08T14:48:44;25.80;76.30
13464;DHT22;6804;48.774;9.174;2023-10-08T14:51:12;25.80;77.00
13464;DHT22;6804;48.774;9.174;2023-10-08T14:53:48;25.80;77.70
13464;DHT22;6804;48.774;9.174;2023-10-08T14:56:17;25.70;78.30
13464;DHT22;6804;48.774;9.174;2023-10-08T14:58:48;25.70;78.50
13464;DHT22;6804;48.774;9.174;2023-10-08T15:01:17;25.60;79.30
13464;DHT22;6804;48.774;9.174;2023-10-08T15:03:51;25.60;78.90
13464;DHT22;6804;48.774;9.174;2023-10-08T15:06:22;25.50;78.70
13464;DHT22;6804;48.774;9.174;2023-10-08T15:08:52;25.40;79.10
13464;DHT22;6804;48.774;9.174;2023-10-08T15:11:23;25.40;79.20
13464;DHT22;6804;48.774;9.174;2023-10-08T15:14:11;25.30;79.30
13464;DHT22;6804;48.774;9.174;2023-10-08T15:16:44;25.30;79.90
13464;DHT22;6804;48.774;9.174;2023-10-08T15:19:21;25.20;80.00
13464;DHT22;6804;48.774;9.174;2023-10-08T15:21:52;25.10;80.10
13464;DHT22;6804;48.774;9.174;2023-10-08T15:24:22;25.10;80.60
13464;DHT22;6804;48.774;9.174;2023-10-08T15:26:52;25.10;80.90
13464;DHT22;6804;48.774;9.174;2023-10-08T15:29:24;25.00;81.00
13464;DHT22;6804;48.774;9.174;2023-10-08T15:31:53;25.00;81.40
13464;DHT22;6804;48.774;9.174;2023-10-08T15:34:22;25.00;81.80
13464;DHT22;6804;48.774;9.174;2023-10-08T15:36:54;24.90;82.00
13464;DHT22;6804;48.774;9.174;2023-10-08T15:39:25;24.80;82.30
13464;DHT22;6804;48.774;9.174;2023-10-08T15:41:55;24.80;82.60
13464;DHT22;6804;48.774;9.174;2023-10-08T15:44:24;24.70;82.80
13464;DHT22;6804;48.774;9.174;2023-10-08T15:46:53;24.70;83.30
13464;DHT22;6804;48.774;9.174;2023-10-08T15:49:22;24.60;83.50
13464;DHT22;6804;48.774;9.174;2023-10-08T15:51:53;24.60;83.80
13464;DHT22;6804;48.774;9.174;2023-10-08T15:54:21;24.50;83.90
13464;DHT22;6804;48.774;9.174;2023-10-08T15:56:50;24.40;84.30
13464;DHT22;6804;48.774;9.174;2023-10-08T15:59:26;24.40;84.50
13464;DHT22;6804;48.774;9.174;2023-10-08T16:01:57;24.40;85.60
13464;DHT22;6804;48.774;9.174;2023-10-08T16:04:25;24.40;85.10
13464;DHT22;6804;48.774;9.174;2023-10-08T16:06:54;24.30;85.30
13464;DHT22;6804;48.774;9.174;2023-10-08T16:09:22;24.30;85.50
13464;DHT22;6804;48.774;9.174;2023-10-08T16:11:51;24.30;85.60
13464;DHT22;6804;48.774;9.174;2023-10-08T16:14:23;24.20;85.50
13464;DHT22;6804;48.774;9.174;2023-10-08T16:16:53;24.10;85.30
13464;DHT22;6804;48.774;9.174;2023-10-08T16:19:24;24.10;85.40
13464;DHT22;6804;48.774;9.174;2023-10-08T16:21:54;24.00;85.50
13464;DHT22;6804;48.774;9.174;2023-10-08T16:24:23;24.00;85.70
13464;DHT22;6804;48.774;9.174;2023-10-08T16:26:53;23.90;85.70
13464;DHT22;6804;48.774;9.174;2023-10-08T16:29:23;23.90;86.00